Pfugerville's Hourly Summary for Tuesday, April 18, 2017
Hour Temp
(f)
RH
(%)
Solar Rad.
(MJ/m2)
Rainfall
(in)
Wind
(mph)
4/18/2017 12:00 AM 63 100 0 0 1.79
4/18/2017 1:00 AM 63 100 0 0 0.85
4/18/2017 2:00 AM 62 100 0 0 0.39
4/18/2017 3:00 AM 62 100 0 0 1.07
4/18/2017 4:00 AM 63 100 0 0 1.67
4/18/2017 5:00 AM 63 100 0 0 1.93
4/18/2017 6:00 AM 63 100 0 0 3.32
4/18/2017 7:00 AM 63 100 0 0 4.56
4/18/2017 8:00 AM 63 100 0.03 0 4.67
4/18/2017 9:00 AM 63 100 0.18 0 5.21
4/18/2017 10:00 AM 64 100 0.62 0 5.1
4/18/2017 11:00 AM 66 100 1.03 0 5.1
4/18/2017 12:00 PM 69 100 1.23 0 5.13
4/18/2017 1:00 PM 69 100 1.16 0 5.15
4/18/2017 2:00 PM 71 100 1.84 0 2.49
4/18/2017 3:00 PM 73 98 2.28 0 2.8
4/18/2017 4:00 PM 75 90 1.5 0 1.76
4/18/2017 5:00 PM 74 89 1.31 0 0.9
4/18/2017 6:00 PM 74 80 1.06 0 2.06
4/18/2017 7:00 PM 69 100 0.42 0 0.69
4/18/2017 8:00 PM 69 100 0.25 0 0.25
4/18/2017 9:00 PM 68 100 0 0 0.02
4/18/2017 10:00 PM 67 100 0 0 0.05
4/18/2017 11:00 PM 66 100 0 0 0.11
Data Summary 66 98 12.91 0.00 2.38